sensor_id;sensor_type;location;lat;lon;timestamp;P1;durP1;ratioP1;P2;durP2;ratioP2
20073;SDS011;10197;54.282;10.078;2022-08-19T00:00:05;20.00;;;13.90;;
20073;SDS011;10197;54.282;10.078;2022-08-19T00:02:34;21.48;;;15.57;;
20073;SDS011;10197;54.282;10.078;2022-08-19T00:05:02;21.23;;;14.68;;
20073;SDS011;10197;54.282;10.078;2022-08-19T00:07:30;22.33;;;14.18;;
20073;SDS011;10197;54.282;10.078;2022-08-19T00:09:56;30.27;;;16.08;;
20073;SDS011;10197;54.282;10.078;2022-08-19T00:12:26;22.25;;;15.48;;
20073;SDS011;10197;54.282;10.078;2022-08-19T00:14:53;20.83;;;14.82;;
20073;SDS011;10197;54.282;10.078;2022-08-19T00:17:22;27.73;;;15.70;;
20073;SDS011;10197;54.282;10.078;2022-08-19T00:19:48;22.23;;;14.93;;
20073;SDS011;10197;54.282;10.078;2022-08-19T00:22:15;25.55;;;17.08;;
20073;SDS011;10197;54.282;10.078;2022-08-19T00:24:43;23.45;;;15.90;;
20073;SDS011;10197;54.282;10.078;2022-08-19T00:27:10;29.48;;;19.88;;
20073;SDS011;10197;54.282;10.078;2022-08-19T00:29:38;19.77;;;14.27;;
20073;SDS011;10197;54.282;10.078;2022-08-19T00:32:06;35.35;;;20.58;;
20073;SDS011;10197;54.282;10.078;2022-08-19T00:34:32;30.27;;;17.75;;
20073;SDS011;10197;54.282;10.078;2022-08-19T00:36:59;26.65;;;18.25;;
20073;SDS011;10197;54.282;10.078;2022-08-19T00:39:26;25.92;;;16.45;;
20073;SDS011;10197;54.282;10.078;2022-08-19T00:41:53;27.70;;;17.60;;
20073;SDS011;10197;54.282;10.078;2022-08-19T00:44:21;22.92;;;16.17;;
20073;SDS011;10197;54.282;10.078;2022-08-19T00:46:50;28.42;;;15.85;;
20073;SDS011;10197;54.282;10.078;2022-08-19T00:49:19;25.17;;;18.25;;
20073;SDS011;10197;54.282;10.078;2022-08-19T00:51:51;24.17;;;16.58;;
20073;SDS011;10197;54.282;10.078;2022-08-19T00:54:19;25.83;;;16.00;;
20073;SDS011;10197;54.282;10.078;2022-08-19T00:56:47;33.58;;;21.25;;
20073;SDS011;10197;54.282;10.078;2022-08-19T00:59:15;28.48;;;17.70;;
20073;SDS011;10197;54.282;10.078;2022-08-19T01:01:43;37.92;;;21.13;;
20073;SDS011;10197;54.282;10.078;2022-08-19T01:04:12;29.23;;;17.92;;
20073;SDS011;10197;54.282;10.078;2022-08-19T01:06:40;28.05;;;18.67;;
20073;SDS011;10197;54.282;10.078;2022-08-19T01:09:07;24.17;;;14.38;;
20073;SDS011;10197;54.282;10.078;2022-08-19T01:11:35;28.80;;;17.65;;
20073;SDS011;10197;54.282;10.078;2022-08-19T01:14:03;30.50;;;18.30;;
20073;SDS011;10197;54.282;10.078;2022-08-19T01:16:30;27.65;;;17.92;;
20073;SDS011;10197;54.282;10.078;2022-08-19T01:18:58;25.92;;;17.77;;
20073;SDS011;10197;54.282;10.078;2022-08-19T01:21:28;28.35;;;17.25;;
20073;SDS011;10197;54.282;10.078;2022-08-19T01:24:00;27.10;;;17.25;;
20073;SDS011;10197;54.282;10.078;2022-08-19T01:26:27;27.20;;;16.85;;
20073;SDS011;10197;54.282;10.078;2022-08-19T01:28:55;25.85;;;17.10;;
20073;SDS011;10197;54.282;10.078;2022-08-19T01:31:23;39.13;;;22.90;;
20073;SDS011;10197;54.282;10.078;2022-08-19T01:33:52;30.85;;;19.83;;
20073;SDS011;10197;54.282;10.078;2022-08-19T01:36:23;32.20;;;21.40;;
20073;SDS011;10197;54.282;10.078;2022-08-19T01:38:51;29.98;;;18.10;;
20073;SDS011;10197;54.282;10.078;2022-08-19T01:41:20;31.10;;;20.23;;
20073;SDS011;10197;54.282;10.078;2022-08-19T01:43:48;33.28;;;21.63;;
20073;SDS011;10197;54.282;10.078;2022-08-19T01:46:16;35.30;;;21.60;;
20073;SDS011;10197;54.282;10.078;2022-08-19T01:48:44;32.85;;;19.80;;
20073;SDS011;10197;54.282;10.078;2022-08-19T01:51:12;34.45;;;21.60;;
20073;SDS011;10197;54.282;10.078;2022-08-19T01:53:40;31.05;;;19.50;;
20073;SDS011;10197;54.282;10.078;2022-08-19T01:56:07;36.20;;;21.25;;
20073;SDS011;10197;54.282;10.078;2022-08-19T01:58:38;37.22;;;20.73;;
20073;SDS011;10197;54.282;10.078;2022-08-19T02:01:07;37.25;;;23.00;;
20073;SDS011;10197;54.282;10.078;2022-08-19T02:03:34;32.78;;;19.80;;
20073;SDS011;10197;54.282;10.078;2022-08-19T02:06:01;37.42;;;22.95;;
20073;SDS011;10197;54.282;10.078;2022-08-19T02:08:30;37.28;;;21.77;;
20073;SDS011;10197;54.282;10.078;2022-08-19T02:10:58;34.70;;;21.85;;
20073;SDS011;10197;54.282;10.078;2022-08-19T02:13:26;40.53;;;23.45;;
20073;SDS011;10197;54.282;10.078;2022-08-19T02:15:55;34.00;;;23.27;;
20073;SDS011;10197;54.282;10.078;2022-08-19T02:18:21;42.72;;;23.50;;
20073;SDS011;10197;54.282;10.078;2022-08-19T02:20:48;36.42;;;18.75;;
20073;SDS011;10197;54.282;10.078;2022-08-19T02:23:15;43.30;;;24.13;;
20073;SDS011;10197;54.282;10.078;2022-08-19T02:25:43;34.95;;;18.67;;
20073;SDS011;10197;54.282;10.078;2022-08-19T02:28:10;39.42;;;21.85;;
20073;SDS011;10197;54.282;10.078;2022-08-19T02:30:37;47.67;;;22.65;;
20073;SDS011;10197;54.282;10.078;2022-08-19T02:33:06;43.90;;;22.30;;
20073;SDS011;10197;54.282;10.078;2022-08-19T02:35:33;40.67;;;21.48;;
20073;SDS011;10197;54.282;10.078;2022-08-19T02:38:00;42.47;;;21.27;;
20073;SDS011;10197;54.282;10.078;2022-08-19T02:40:48;39.85;;;24.10;;
20073;SDS011;10197;54.282;10.078;2022-08-19T02:43:16;38.47;;;23.23;;
20073;SDS011;10197;54.282;10.078;2022-08-19T02:45:45;43.53;;;24.38;;
20073;SDS011;10197;54.282;10.078;2022-08-19T02:48:15;38.00;;;21.80;;
20073;SDS011;10197;54.282;10.078;2022-08-19T02:50:43;41.55;;;22.83;;
20073;SDS011;10197;54.282;10.078;2022-08-19T02:53:10;31.88;;;20.30;;
20073;SDS011;10197;54.282;10.078;2022-08-19T02:55:42;47.95;;;25.45;;
20073;SDS011;10197;54.282;10.078;2022-08-19T02:58:10;39.28;;;23.65;;
20073;SDS011;10197;54.282;10.078;2022-08-19T03:00:40;49.83;;;25.10;;
20073;SDS011;10197;54.282;10.078;2022-08-19T03:03:08;39.97;;;22.55;;
20073;SDS011;10197;54.282;10.078;2022-08-19T03:05:37;45.83;;;24.17;;
20073;SDS011;10197;54.282;10.078;2022-08-19T03:08:04;40.30;;;24.88;;
20073;SDS011;10197;54.282;10.078;2022-08-19T03:10:31;40.60;;;22.70;;
20073;SDS011;10197;54.282;10.078;2022-08-19T03:12:58;37.50;;;21.35;;
20073;SDS011;10197;54.282;10.078;2022-08-19T03:15:25;45.53;;;23.33;;
20073;SDS011;10197;54.282;10.078;2022-08-19T03:17:52;38.03;;;23.02;;
20073;SDS011;10197;54.282;10.078;2022-08-19T03:20:19;35.05;;;19.75;;
20073;SDS011;10197;54.282;10.078;2022-08-19T03:22:47;37.47;;;21.92;;
20073;SDS011;10197;54.282;10.078;2022-08-19T03:25:14;32.80;;;18.88;;
20073;SDS011;10197;54.282;10.078;2022-08-19T03:27:42;29.75;;;17.10;;
20073;SDS011;10197;54.282;10.078;2022-08-19T03:30:09;38.70;;;21.40;;
20073;SDS011;10197;54.282;10.078;2022-08-19T03:32:37;35.90;;;21.40;;
20073;SDS011;10197;54.282;10.078;2022-08-19T03:35:04;39.53;;;24.70;;
20073;SDS011;10197;54.282;10.078;2022-08-19T03:37:31;38.80;;;21.63;;
20073;SDS011;10197;54.282;10.078;2022-08-19T03:39:59;37.40;;;22.38;;
20073;SDS011;10197;54.282;10.078;2022-08-19T03:42:28;45.03;;;25.50;;
20073;SDS011;10197;54.282;10.078;2022-08-19T03:44:55;37.20;;;20.98;;
20073;SDS011;10197;54.282;10.078;2022-08-19T03:47:23;33.28;;;19.05;;
20073;SDS011;10197;54.282;10.078;2022-08-19T03:49:50;46.55;;;25.55;;
20073;SDS011;10197;54.282;10.078;2022-08-19T03:52:17;41.97;;;21.77;;
20073;SDS011;10197;54.282;10.078;2022-08-19T03:54:44;46.22;;;25.88;;
20073;SDS011;10197;54.282;10.078;2022-08-19T03:57:13;38.53;;;20.90;;
20073;SDS011;10197;54.282;10.078;2022-08-19T03:59:40;37.28;;;19.83;;
20073;SDS011;10197;54.282;10.078;2022-08-19T04:02:08;37.30;;;22.30;;
20073;SDS011;10197;54.282;10.078;2022-08-19T04:04:37;33.00;;;18.90;;
20073;SDS011;10197;54.282;10.078;2022-08-19T04:07:04;33.05;;;20.50;;
20073;SDS011;10197;54.282;10.078;2022-08-19T04:09:32;38.33;;;22.50;;
20073;SDS011;10197;54.282;10.078;2022-08-19T04:12:02;35.55;;;20.33;;
20073;SDS011;10197;54.282;10.078;2022-08-19T04:14:32;34.58;;;19.77;;
20073;SDS011;10197;54.282;10.078;2022-08-19T04:17:00;30.08;;;17.35;;
20073;SDS011;10197;54.282;10.078;2022-08-19T04:19:29;35.45;;;19.73;;
20073;SDS011;10197;54.282;10.078;2022-08-19T04:21:57;37.30;;;19.30;;
20073;SDS011;10197;54.282;10.078;2022-08-19T04:24:24;36.20;;;21.90;;
20073;SDS011;10197;54.282;10.078;2022-08-19T04:26:51;42.88;;;25.25;;
20073;SDS011;10197;54.282;10.078;2022-08-19T04:29:19;48.60;;;25.20;;
20073;SDS011;10197;54.282;10.078;2022-08-19T04:31:52;46.08;;;22.63;;
20073;SDS011;10197;54.282;10.078;2022-08-19T04:34:21;45.00;;;23.60;;
20073;SDS011;10197;54.282;10.078;2022-08-19T04:36:50;44.13;;;22.73;;
20073;SDS011;10197;54.282;10.078;2022-08-19T04:39:18;46.28;;;25.08;;
20073;SDS011;10197;54.282;10.078;2022-08-19T04:41:47;31.80;;;20.02;;
20073;SDS011;10197;54.282;10.078;2022-08-19T04:44:31;29.55;;;17.38;;
20073;SDS011;10197;54.282;10.078;2022-08-19T04:47:00;30.52;;;17.88;;
20073;SDS011;10197;54.282;10.078;2022-08-19T04:49:28;30.70;;;17.55;;
20073;SDS011;10197;54.282;10.078;2022-08-19T04:51:55;28.38;;;15.90;;
20073;SDS011;10197;54.282;10.078;2022-08-19T04:54:23;44.60;;;19.52;;
20073;SDS011;10197;54.282;10.078;2022-08-19T04:56:51;31.23;;;15.93;;
20073;SDS011;10197;54.282;10.078;2022-08-19T04:59:18;38.97;;;16.08;;
20073;SDS011;10197;54.282;10.078;2022-08-19T05:01:46;30.05;;;15.82;;
20073;SDS011;10197;54.282;10.078;2022-08-19T05:04:17;44.17;;;22.00;;
20073;SDS011;10197;54.282;10.078;2022-08-19T05:06:46;44.55;;;23.58;;
20073;SDS011;10197;54.282;10.078;2022-08-19T05:09:15;42.95;;;20.17;;
20073;SDS011;10197;54.282;10.078;2022-08-19T05:11:42;52.47;;;24.20;;
20073;SDS011;10197;54.282;10.078;2022-08-19T05:14:10;50.50;;;22.70;;
20073;SDS011;10197;54.282;10.078;2022-08-19T05:16:39;45.33;;;25.02;;
20073;SDS011;10197;54.282;10.078;2022-08-19T05:19:06;41.55;;;20.73;;
20073;SDS011;10197;54.282;10.078;2022-08-19T05:21:52;36.92;;;19.55;;
20073;SDS011;10197;54.282;10.078;2022-08-19T05:24:37;42.75;;;23.02;;
20073;SDS011;10197;54.282;10.078;2022-08-19T05:27:04;54.92;;;24.75;;
20073;SDS011;10197;54.282;10.078;2022-08-19T05:29:32;39.42;;;20.35;;
20073;SDS011;10197;54.282;10.078;2022-08-19T05:32:00;47.13;;;21.02;;
20073;SDS011;10197;54.282;10.078;2022-08-19T05:34:28;55.42;;;21.73;;
20073;SDS011;10197;54.282;10.078;2022-08-19T05:36:58;47.20;;;22.48;;
20073;SDS011;10197;54.282;10.078;2022-08-19T05:39:26;63.05;;;25.77;;
20073;SDS011;10197;54.282;10.078;2022-08-19T05:41:57;54.60;;;26.60;;
20073;SDS011;10197;54.282;10.078;2022-08-19T05:44:25;40.97;;;21.13;;
20073;SDS011;10197;54.282;10.078;2022-08-19T05:46:56;42.17;;;20.77;;
20073;SDS011;10197;54.282;10.078;2022-08-19T05:49:23;44.92;;;21.85;;
20073;SDS011;10197;54.282;10.078;2022-08-19T05:51:51;41.75;;;20.73;;
20073;SDS011;10197;54.282;10.078;2022-08-19T05:54:19;41.45;;;22.20;;
20073;SDS011;10197;54.282;10.078;2022-08-19T05:56:46;53.78;;;27.45;;
20073;SDS011;10197;54.282;10.078;2022-08-19T05:59:14;42.42;;;21.73;;
20073;SDS011;10197;54.282;10.078;2022-08-19T06:01:43;52.78;;;23.95;;
20073;SDS011;10197;54.282;10.078;2022-08-19T06:04:11;47.05;;;20.25;;
20073;SDS011;10197;54.282;10.078;2022-08-19T06:06:40;53.25;;;21.90;;
20073;SDS011;10197;54.282;10.078;2022-08-19T06:09:07;50.00;;;24.45;;
20073;SDS011;10197;54.282;10.078;2022-08-19T06:11:37;36.97;;;19.00;;
20073;SDS011;10197;54.282;10.078;2022-08-19T06:14:06;40.55;;;20.25;;
20073;SDS011;10197;54.282;10.078;2022-08-19T06:16:34;33.95;;;18.92;;
20073;SDS011;10197;54.282;10.078;2022-08-19T06:19:05;35.58;;;18.67;;
20073;SDS011;10197;54.282;10.078;2022-08-19T06:21:34;44.38;;;22.20;;
20073;SDS011;10197;54.282;10.078;2022-08-19T06:24:03;39.10;;;18.08;;
20073;SDS011;10197;54.282;10.078;2022-08-19T06:26:30;39.67;;;20.17;;
20073;SDS011;10197;54.282;10.078;2022-08-19T06:28:59;39.40;;;20.98;;
20073;SDS011;10197;54.282;10.078;2022-08-19T06:31:27;42.85;;;22.38;;
20073;SDS011;10197;54.282;10.078;2022-08-19T06:33:56;42.95;;;20.80;;
20073;SDS011;10197;54.282;10.078;2022-08-19T06:36:24;35.50;;;22.08;;
20073;SDS011;10197;54.282;10.078;2022-08-19T06:38:56;41.38;;;23.92;;
20073;SDS011;10197;54.282;10.078;2022-08-19T06:41:24;37.85;;;22.42;;
20073;SDS011;10197;54.282;10.078;2022-08-19T06:43:51;43.33;;;22.90;;
20073;SDS011;10197;54.282;10.078;2022-08-19T06:46:20;39.03;;;21.98;;
20073;SDS011;10197;54.282;10.078;2022-08-19T06:48:47;40.13;;;24.75;;
20073;SDS011;10197;54.282;10.078;2022-08-19T06:51:14;37.72;;;22.10;;
20073;SDS011;10197;54.282;10.078;2022-08-19T06:53:43;35.22;;;20.08;;
20073;SDS011;10197;54.282;10.078;2022-08-19T06:56:12;35.30;;;20.80;;
20073;SDS011;10197;54.282;10.078;2022-08-19T06:58:40;45.97;;;25.23;;
20073;SDS011;10197;54.282;10.078;2022-08-19T07:01:07;35.13;;;21.25;;
20073;SDS011;10197;54.282;10.078;2022-08-19T07:03:36;37.55;;;23.35;;
20073;SDS011;10197;54.282;10.078;2022-08-19T07:06:04;36.00;;;22.80;;
20073;SDS011;10197;54.282;10.078;2022-08-19T07:08:33;42.30;;;21.60;;
20073;SDS011;10197;54.282;10.078;2022-08-19T07:11:01;36.15;;;21.95;;
20073;SDS011;10197;54.282;10.078;2022-08-19T07:13:28;40.78;;;22.38;;
20073;SDS011;10197;54.282;10.078;2022-08-19T07:16:02;35.17;;;21.67;;
20073;SDS011;10197;54.282;10.078;2022-08-19T07:18:33;32.40;;;22.70;;
20073;SDS011;10197;54.282;10.078;2022-08-19T07:21:05;34.72;;;22.02;;
20073;SDS011;10197;54.282;10.078;2022-08-19T07:23:33;38.88;;;24.70;;
20073;SDS011;10197;54.282;10.078;2022-08-19T07:26:03;41.97;;;22.83;;
20073;SDS011;10197;54.282;10.078;2022-08-19T07:28:31;35.75;;;22.08;;
20073;SDS011;10197;54.282;10.078;2022-08-19T07:30:58;41.88;;;23.67;;
20073;SDS011;10197;54.282;10.078;2022-08-19T07:33:27;40.90;;;21.75;;
20073;SDS011;10197;54.282;10.078;2022-08-19T07:35:56;46.42;;;27.02;;
20073;SDS011;10197;54.282;10.078;2022-08-19T07:38:25;41.88;;;21.90;;
20073;SDS011;10197;54.282;10.078;2022-08-19T07:40:52;38.72;;;24.38;;
20073;SDS011;10197;54.282;10.078;2022-08-19T07:43:22;50.17;;;27.70;;
20073;SDS011;10197;54.282;10.078;2022-08-19T07:45:50;49.47;;;30.63;;
20073;SDS011;10197;54.282;10.078;2022-08-19T07:48:18;50.75;;;26.65;;
20073;SDS011;10197;54.282;10.078;2022-08-19T07:50:45;47.13;;;26.98;;
20073;SDS011;10197;54.282;10.078;2022-08-19T07:53:13;53.15;;;27.80;;
20073;SDS011;10197;54.282;10.078;2022-08-19T07:55:41;48.40;;;26.38;;
20073;SDS011;10197;54.282;10.078;2022-08-19T07:58:08;47.25;;;27.77;;
20073;SDS011;10197;54.282;10.078;2022-08-19T08:00:36;50.78;;;26.45;;
20073;SDS011;10197;54.282;10.078;2022-08-19T08:03:03;50.75;;;28.95;;
20073;SDS011;10197;54.282;10.078;2022-08-19T08:05:29;51.17;;;27.40;;
20073;SDS011;10197;54.282;10.078;2022-08-19T08:08:22;43.35;;;27.25;;
20073;SDS011;10197;54.282;10.078;2022-08-19T08:11:04;51.53;;;29.13;;
20073;SDS011;10197;54.282;10.078;2022-08-19T08:13:45;44.15;;;27.65;;
20073;SDS011;10197;54.282;10.078;2022-08-19T08:16:14;48.58;;;27.65;;
20073;SDS011;10197;54.282;10.078;2022-08-19T08:18:41;39.08;;;25.15;;
20073;SDS011;10197;54.282;10.078;2022-08-19T08:21:08;44.20;;;27.08;;
20073;SDS011;10197;54.282;10.078;2022-08-19T08:23:35;42.17;;;27.45;;
20073;SDS011;10197;54.282;10.078;2022-08-19T08:26:02;41.65;;;25.52;;
20073;SDS011;10197;54.282;10.078;2022-08-19T08:28:31;41.75;;;26.52;;
20073;SDS011;10197;54.282;10.078;2022-08-19T08:30:58;41.58;;;27.38;;
20073;SDS011;10197;54.282;10.078;2022-08-19T08:33:26;42.80;;;26.00;;
20073;SDS011;10197;54.282;10.078;2022-08-19T08:35:53;43.25;;;26.67;;
20073;SDS011;10197;54.282;10.078;2022-08-19T08:38:20;36.63;;;26.15;;
20073;SDS011;10197;54.282;10.078;2022-08-19T08:40:48;34.40;;;25.58;;
20073;SDS011;10197;54.282;10.078;2022-08-19T08:43:20;35.65;;;23.38;;
20073;SDS011;10197;54.282;10.078;2022-08-19T08:45:53;34.70;;;21.60;;
20073;SDS011;10197;54.282;10.078;2022-08-19T08:48:24;34.25;;;22.52;;
20073;SDS011;10197;54.282;10.078;2022-08-19T08:51:03;31.83;;;25.15;;
20073;SDS011;10197;54.282;10.078;2022-08-19T08:53:31;29.30;;;22.00;;
20073;SDS011;10197;54.282;10.078;2022-08-19T08:56:00;32.90;;;22.70;;
20073;SDS011;10197;54.282;10.078;2022-08-19T08:58:31;27.92;;;21.00;;
20073;SDS011;10197;54.282;10.078;2022-08-19T09:01:08;30.15;;;22.25;;
20073;SDS011;10197;54.282;10.078;2022-08-19T09:03:36;28.90;;;23.55;;
20073;SDS011;10197;54.282;10.078;2022-08-19T09:06:06;32.05;;;23.33;;
20073;SDS011;10197;54.282;10.078;2022-08-19T09:08:38;26.90;;;22.67;;
20073;SDS011;10197;54.282;10.078;2022-08-19T09:11:08;28.30;;;22.77;;
20073;SDS011;10197;54.282;10.078;2022-08-19T09:13:40;26.45;;;22.98;;
20073;SDS011;10197;54.282;10.078;2022-08-19T09:16:12;27.55;;;21.52;;
20073;SDS011;10197;54.282;10.078;2022-08-19T09:18:42;25.88;;;21.23;;
20073;SDS011;10197;54.282;10.078;2022-08-19T09:21:11;26.92;;;22.55;;
20073;SDS011;10197;54.282;10.078;2022-08-19T09:23:38;29.15;;;24.25;;
20073;SDS011;10197;54.282;10.078;2022-08-19T09:26:06;30.98;;;23.48;;
20073;SDS011;10197;54.282;10.078;2022-08-19T09:28:34;30.50;;;20.60;;
20073;SDS011;10197;54.282;10.078;2022-08-19T09:31:02;27.65;;;22.83;;
20073;SDS011;10197;54.282;10.078;2022-08-19T09:33:34;28.08;;;22.23;;
20073;SDS011;10197;54.282;10.078;2022-08-19T09:36:02;27.45;;;21.30;;
20073;SDS011;10197;54.282;10.078;2022-08-19T09:38:30;31.77;;;24.92;;
20073;SDS011;10197;54.282;10.078;2022-08-19T09:41:01;31.90;;;24.63;;
20073;SDS011;10197;54.282;10.078;2022-08-19T09:43:30;31.65;;;21.23;;
20073;SDS011;10197;54.282;10.078;2022-08-19T09:45:57;30.35;;;23.55;;
20073;SDS011;10197;54.282;10.078;2022-08-19T09:48:26;35.70;;;27.88;;
20073;SDS011;10197;54.282;10.078;2022-08-19T09:50:54;33.95;;;23.50;;
20073;SDS011;10197;54.282;10.078;2022-08-19T09:53:21;33.60;;;24.98;;
20073;SDS011;10197;54.282;10.078;2022-08-19T09:55:48;31.90;;;24.85;;
20073;SDS011;10197;54.282;10.078;2022-08-19T09:58:15;34.08;;;25.58;;
20073;SDS011;10197;54.282;10.078;2022-08-19T10:00:42;34.20;;;26.27;;
20073;SDS011;10197;54.282;10.078;2022-08-19T10:03:09;36.63;;;28.65;;
20073;SDS011;10197;54.282;10.078;2022-08-19T10:05:37;36.83;;;27.70;;
20073;SDS011;10197;54.282;10.078;2022-08-19T10:08:19;34.28;;;25.00;;
20073;SDS011;10197;54.282;10.078;2022-08-19T10:10:46;40.00;;;28.13;;
20073;SDS011;10197;54.282;10.078;2022-08-19T10:13:14;34.40;;;25.77;;
20073;SDS011;10197;54.282;10.078;2022-08-19T10:15:42;37.75;;;27.58;;
20073;SDS011;10197;54.282;10.078;2022-08-19T10:18:10;39.63;;;29.83;;
20073;SDS011;10197;54.282;10.078;2022-08-19T10:20:38;47.25;;;31.25;;
20073;SDS011;10197;54.282;10.078;2022-08-19T10:23:06;42.40;;;28.45;;
20073;SDS011;10197;54.282;10.078;2022-08-19T10:25:35;39.15;;;27.08;;
20073;SDS011;10197;54.282;10.078;2022-08-19T10:28:03;36.42;;;24.38;;
20073;SDS011;10197;54.282;10.078;2022-08-19T10:30:31;38.25;;;27.05;;
20073;SDS011;10197;54.282;10.078;2022-08-19T10:32:58;28.55;;;22.50;;
20073;SDS011;10197;54.282;10.078;2022-08-19T10:35:24;28.25;;;22.40;;
20073;SDS011;10197;54.282;10.078;2022-08-19T10:37:54;28.42;;;22.35;;
20073;SDS011;10197;54.282;10.078;2022-08-19T10:40:24;34.30;;;26.77;;
20073;SDS011;10197;54.282;10.078;2022-08-19T10:42:52;28.73;;;22.27;;
20073;SDS011;10197;54.282;10.078;2022-08-19T10:45:20;29.48;;;20.48;;
20073;SDS011;10197;54.282;10.078;2022-08-19T10:47:50;28.25;;;20.35;;
20073;SDS011;10197;54.282;10.078;2022-08-19T10:50:17;30.58;;;23.70;;
20073;SDS011;10197;54.282;10.078;2022-08-19T10:53:03;30.45;;;23.38;;
20073;SDS011;10197;54.282;10.078;2022-08-19T10:55:30;33.92;;;22.67;;
20073;SDS011;10197;54.282;10.078;2022-08-19T10:58:17;35.55;;;25.30;;
20073;SDS011;10197;54.282;10.078;2022-08-19T11:00:53;31.67;;;22.67;;
20073;SDS011;10197;54.282;10.078;2022-08-19T11:03:20;33.55;;;23.70;;
20073;SDS011;10197;54.282;10.078;2022-08-19T11:05:56;30.95;;;22.70;;
20073;SDS011;10197;54.282;10.078;2022-08-19T11:08:26;27.67;;;21.38;;
20073;SDS011;10197;54.282;10.078;2022-08-19T11:10:54;36.08;;;23.33;;
20073;SDS011;10197;54.282;10.078;2022-08-19T11:13:28;36.22;;;26.10;;
20073;SDS011;10197;54.282;10.078;2022-08-19T11:15:56;33.55;;;20.42;;
20073;SDS011;10197;54.282;10.078;2022-08-19T11:18:24;31.08;;;24.15;;
20073;SDS011;10197;54.282;10.078;2022-08-19T11:20:51;36.90;;;25.75;;
20073;SDS011;10197;54.282;10.078;2022-08-19T11:23:18;33.03;;;22.50;;
20073;SDS011;10197;54.282;10.078;2022-08-19T11:25:45;35.25;;;24.83;;
20073;SDS011;10197;54.282;10.078;2022-08-19T11:28:12;37.95;;;27.27;;
20073;SDS011;10197;54.282;10.078;2022-08-19T11:30:41;35.28;;;26.67;;
20073;SDS011;10197;54.282;10.078;2022-08-19T11:33:08;31.92;;;22.27;;
20073;SDS011;10197;54.282;10.078;2022-08-19T11:35:38;37.03;;;26.55;;
20073;SDS011;10197;54.282;10.078;2022-08-19T11:38:05;33.28;;;25.48;;
20073;SDS011;10197;54.282;10.078;2022-08-19T11:40:32;34.25;;;24.27;;
20073;SDS011;10197;54.282;10.078;2022-08-19T11:42:59;32.05;;;23.85;;
20073;SDS011;10197;54.282;10.078;2022-08-19T11:45:27;33.22;;;24.17;;
20073;SDS011;10197;54.282;10.078;2022-08-19T11:47:56;37.58;;;24.17;;
20073;SDS011;10197;54.282;10.078;2022-08-19T11:50:23;40.20;;;27.70;;
20073;SDS011;10197;54.282;10.078;2022-08-19T11:52:53;39.22;;;27.90;;
20073;SDS011;10197;54.282;10.078;2022-08-19T11:55:20;40.63;;;27.75;;
20073;SDS011;10197;54.282;10.078;2022-08-19T11:57:47;40.60;;;28.40;;
20073;SDS011;10197;54.282;10.078;2022-08-19T12:00:14;37.63;;;27.30;;
20073;SDS011;10197;54.282;10.078;2022-08-19T12:02:42;34.13;;;23.38;;
20073;SDS011;10197;54.282;10.078;2022-08-19T12:05:10;37.38;;;24.92;;
20073;SDS011;10197;54.282;10.078;2022-08-19T12:07:38;39.47;;;25.77;;
20073;SDS011;10197;54.282;10.078;2022-08-19T12:10:06;36.78;;;27.00;;
20073;SDS011;10197;54.282;10.078;2022-08-19T12:12:33;38.45;;;29.17;;
20073;SDS011;10197;54.282;10.078;2022-08-19T12:15:01;37.40;;;25.73;;
20073;SDS011;10197;54.282;10.078;2022-08-19T12:17:28;39.15;;;27.17;;
20073;SDS011;10197;54.282;10.078;2022-08-19T12:19:56;36.20;;;25.13;;
20073;SDS011;10197;54.282;10.078;2022-08-19T12:22:24;35.90;;;25.10;;
20073;SDS011;10197;54.282;10.078;2022-08-19T12:24:51;33.22;;;22.90;;
20073;SDS011;10197;54.282;10.078;2022-08-19T12:27:19;32.05;;;23.20;;
20073;SDS011;10197;54.282;10.078;2022-08-19T12:29:46;43.80;;;29.30;;
20073;SDS011;10197;54.282;10.078;2022-08-19T12:32:14;39.78;;;28.27;;
20073;SDS011;10197;54.282;10.078;2022-08-19T12:34:42;37.38;;;26.83;;
20073;SDS011;10197;54.282;10.078;2022-08-19T12:37:09;42.72;;;28.08;;
20073;SDS011;10197;54.282;10.078;2022-08-19T12:39:40;33.63;;;24.33;;
20073;SDS011;10197;54.282;10.078;2022-08-19T12:42:08;34.50;;;25.67;;
20073;SDS011;10197;54.282;10.078;2022-08-19T12:44:36;36.92;;;24.15;;
20073;SDS011;10197;54.282;10.078;2022-08-19T12:47:03;36.30;;;25.17;;
20073;SDS011;10197;54.282;10.078;2022-08-19T12:49:31;36.53;;;25.27;;
20073;SDS011;10197;54.282;10.078;2022-08-19T12:51:59;37.10;;;25.30;;
20073;SDS011;10197;54.282;10.078;2022-08-19T12:54:26;39.25;;;28.60;;
20073;SDS011;10197;54.282;10.078;2022-08-19T12:56:54;39.30;;;27.88;;
20073;SDS011;10197;54.282;10.078;2022-08-19T12:59:21;35.33;;;23.50;;
20073;SDS011;10197;54.282;10.078;2022-08-19T13:01:48;36.10;;;25.40;;
20073;SDS011;10197;54.282;10.078;2022-08-19T13:04:15;36.17;;;23.70;;
20073;SDS011;10197;54.282;10.078;2022-08-19T13:06:42;40.58;;;27.20;;
20073;SDS011;10197;54.282;10.078;2022-08-19T13:09:09;36.42;;;26.17;;
20073;SDS011;10197;54.282;10.078;2022-08-19T13:11:36;36.63;;;26.20;;
20073;SDS011;10197;54.282;10.078;2022-08-19T13:14:05;34.70;;;24.35;;
20073;SDS011;10197;54.282;10.078;2022-08-19T13:16:32;38.85;;;26.92;;
20073;SDS011;10197;54.282;10.078;2022-08-19T13:18:58;38.60;;;28.27;;
20073;SDS011;10197;54.282;10.078;2022-08-19T13:21:28;37.42;;;26.13;;
20073;SDS011;10197;54.282;10.078;2022-08-19T13:23:56;32.28;;;22.13;;
20073;SDS011;10197;54.282;10.078;2022-08-19T13:26:23;37.58;;;26.33;;
20073;SDS011;10197;54.282;10.078;2022-08-19T13:28:50;34.00;;;24.83;;
20073;SDS011;10197;54.282;10.078;2022-08-19T13:31:36;34.60;;;23.10;;
20073;SDS011;10197;54.282;10.078;2022-08-19T13:34:26;31.90;;;23.40;;
20073;SDS011;10197;54.282;10.078;2022-08-19T13:36:54;36.55;;;27.20;;
20073;SDS011;10197;54.282;10.078;2022-08-19T13:39:21;32.28;;;23.63;;
20073;SDS011;10197;54.282;10.078;2022-08-19T13:41:49;32.90;;;24.27;;
20073;SDS011;10197;54.282;10.078;2022-08-19T13:44:16;33.67;;;24.63;;
20073;SDS011;10197;54.282;10.078;2022-08-19T13:46:48;29.52;;;21.35;;
20073;SDS011;10197;54.282;10.078;2022-08-19T13:49:19;33.88;;;25.42;;
20073;SDS011;10197;54.282;10.078;2022-08-19T13:51:45;32.42;;;24.90;;
20073;SDS011;10197;54.282;10.078;2022-08-19T13:54:13;35.00;;;25.92;;
20073;SDS011;10197;54.282;10.078;2022-08-19T13:56:41;29.50;;;23.33;;
20073;SDS011;10197;54.282;10.078;2022-08-19T13:59:09;28.33;;;21.80;;
20073;SDS011;10197;54.282;10.078;2022-08-19T14:01:36;25.70;;;20.30;;
20073;SDS011;10197;54.282;10.078;2022-08-19T14:04:05;32.88;;;23.00;;
20073;SDS011;10197;54.282;10.078;2022-08-19T14:06:32;32.97;;;24.17;;
20073;SDS011;10197;54.282;10.078;2022-08-19T14:08:59;30.77;;;23.08;;
20073;SDS011;10197;54.282;10.078;2022-08-19T14:11:28;34.80;;;26.08;;
20073;SDS011;10197;54.282;10.078;2022-08-19T14:13:55;31.02;;;23.33;;
20073;SDS011;10197;54.282;10.078;2022-08-19T14:16:22;24.40;;;19.15;;